Time;durP1;ratioP1;P1;durP2;ratioP2;P2;SDS_P1;SDS_P2;PMS_P1;PMS_P2;Temp;Humidity;BMP_temperature;BMP_pressure;BME280_temperature;BME280_humidity;BME280_pressure;Samples;Min_cycle;Max_cycle;Signal;HPM_P1;HPM_P2
2023/07/26 00:01:25;;;;;;;;;;;;;;;15.47;100.00;100992.28;5098784;28;19947;-56
2023/07/26 00:03:55;;;;;;;;;;;;;;;15.57;100.00;100989.06;5100105;28;19916;-52
2023/07/26 00:06:20;;;;;;;;;;;;;;;15.60;100.00;100988.59;5098174;28;19991;-54
2023/07/26 00:08:45;;;;;;;;;;;;;;;15.62;100.00;100986.50;5101883;28;19965;-52
2023/07/26 00:11:12;;;;;;;;;;;;;;;15.66;100.00;100991.44;5096378;28;19983;-52
2023/07/26 00:13:37;;;;;;;;;;;;;;;15.64;100.00;100983.59;5079010;28;19927;-52
2023/07/26 00:16:03;;;;;;;;;;;;;;;15.63;100.00;100985.44;5096266;28;19916;-51
2023/07/26 00:18:28;;;;;;;;;;;;;;;15.55;100.00;100987.63;5096268;28;19959;-53
2023/07/26 00:20:54;;;;;;;;;;;;;;;15.52;100.00;100985.38;5099977;28;19948;-54
2023/07/26 00:23:19;;;;;;;;;;;;;;;15.34;100.00;100985.16;5102825;28;19920;-54
2023/07/26 00:25:44;;;;;;;;;;;;;;;15.41;100.00;100992.34;5096322;28;20006;-54
2023/07/26 00:28:10;;;;;;;;;;;;;;;15.36;100.00;100992.19;5098024;28;20011;-52
2023/07/26 00:30:36;;;;;;;;;;;;;;;15.27;100.00;100986.28;5096366;28;19972;-54
2023/07/26 00:33:01;;;;;;;;;;;;;;;15.28;100.00;100991.44;5096049;28;19924;-54
2023/07/26 00:35:28;;;;;;;;;;;;;;;15.23;100.00;100988.59;5078387;28;20345;-49
2023/07/26 00:37:54;;;;;;;;;;;;;;;15.27;100.00;100989.81;5124320;28;19937;-51
2023/07/26 00:40:19;;;;;;;;;;;;;;;15.24;100.00;100987.56;5095332;28;19956;-52
2023/07/26 00:42:45;;;;;;;;;;;;;;;15.21;100.00;100990.66;5071633;28;19927;-52
2023/07/26 00:45:10;;;;;;;;;;;;;;;15.01;100.00;100986.34;5100326;28;19916;-52
2023/07/26 00:47:36;;;;;;;;;;;;;;;14.97;100.00;100986.97;5095785;28;19928;-50
2023/07/26 00:50:03;;;;;;;;;;;;;;;15.10;100.00;101018.34;5095366;28;19912;-50
2023/07/26 00:52:28;;;;;;;;;;;;;;;14.99;100.00;101009.13;5095512;28;19960;-52
2023/07/26 00:54:56;;;;;;;;;;;;;;;14.84;100.00;101006.78;5077647;28;19917;-52
2023/07/26 00:57:22;;;;;;;;;;;;;;;14.83;100.00;101010.50;5083382;28;19955;-51
2023/07/26 00:59:48;;;;;;;;;;;;;;;14.69;100.00;101013.25;5095614;28;20460;-46
2023/07/26 01:02:14;;;;;;;;;;;;;;;14.74;100.00;101013.47;5123151;28;19918;-50
2023/07/26 01:04:39;;;;;;;;;;;;;;;14.82;100.00;101015.06;5077624;28;19920;-49
2023/07/26 01:07:17;;;;;;;;;;;;;;;14.82;100.00;101006.97;5078189;28;19920;-51
2023/07/26 01:09:55;;;;;;;;;;;;;;;14.82;100.00;101004.28;5065866;28;19912;-49
2023/07/26 01:12:28;;;;;;;;;;;;;;;14.83;100.00;101011.31;5095113;28;19920;-50
2023/07/26 01:15:00;;;;;;;;;;;;;;;14.87;100.00;101009.03;5095592;28;19917;-49
2023/07/26 01:17:27;;;;;;;;;;;;;;;14.97;100.00;101012.03;5095142;28;19923;-47
2023/07/26 01:19:52;;;;;;;;;;;;;;;14.82;100.00;101008.88;5077819;28;19917;-51
2023/07/26 01:22:18;;;;;;;;;;;;;;;14.75;100.00;101004.34;5100257;28;19916;-51
2023/07/26 01:24:43;;;;;;;;;;;;;;;14.72;100.00;101002.09;5100190;28;19924;-53
2023/07/26 01:27:09;;;;;;;;;;;;;;;14.75;100.00;100998.94;5080976;28;20438;-52
2023/07/26 01:29:35;;;;;;;;;;;;;;;14.73;100.00;101003.72;5104258;28;19924;-53
2023/07/26 01:32:01;;;;;;;;;;;;;;;14.71;100.00;101008.50;5094902;28;19923;-47
2023/07/26 01:34:27;;;;;;;;;;;;;;;14.74;100.00;101000.00;5111213;28;19947;-46
2023/07/26 01:36:53;;;;;;;;;;;;;;;14.62;100.00;100999.84;5077430;28;19916;-49
2023/07/26 01:39:20;;;;;;;;;;;;;;;14.62;100.00;101002.53;5095033;28;19955;-47
2023/07/26 01:41:46;;;;;;;;;;;;;;;14.63;100.00;101000.69;5114818;28;19916;-51
2023/07/26 01:44:12;;;;;;;;;;;;;;;14.71;100.00;100997.75;5119712;28;19912;-52
2023/07/26 01:46:38;;;;;;;;;;;;;;;14.76;100.00;100997.09;5095198;28;19979;-50
2023/07/26 01:49:04;;;;;;;;;;;;;;;14.67;100.00;100993.81;5098813;28;19916;-53
2023/07/26 01:51:29;;;;;;;;;;;;;;;14.79;100.00;100998.53;5094931;28;19928;-51
2023/07/26 01:53:55;;;;;;;;;;;;;;;14.73;100.00;100995.66;5077428;28;19952;-52
2023/07/26 01:56:20;;;;;;;;;;;;;;;14.69;100.00;100994.41;5094718;28;20012;-50
2023/07/26 01:58:46;;;;;;;;;;;;;;;14.67;100.00;100991.13;5110997;28;19917;-50
2023/07/26 02:01:11;;;;;;;;;;;;;;;14.67;100.00;100991.13;5110835;28;19923;-51
2023/07/26 02:03:37;;;;;;;;;;;;;;;14.80;100.00;100992.91;5100712;28;19979;-49
2023/07/26 02:06:02;;;;;;;;;;;;;;;14.72;100.00;100991.31;5110757;28;19979;-55
2023/07/26 02:08:28;;;;;;;;;;;;;;;14.79;100.00;101001.22;5123095;28;19920;-52
2023/07/26 02:10:53;;;;;;;;;;;;;;;14.72;100.00;101002.09;5082726;28;19955;-51
2023/07/26 02:13:19;;;;;;;;;;;;;;;14.71;100.00;100994.25;5098456;28;20026;-52
2023/07/26 02:15:45;;;;;;;;;;;;;;;14.65;100.00;101003.16;5098722;28;19916;-50
2023/07/26 02:18:11;;;;;;;;;;;;;;;14.71;100.00;101000.44;5098527;28;19926;-51
2023/07/26 02:20:36;;;;;;;;;;;;;;;14.61;100.00;100994.69;5098693;28;19916;-51
2023/07/26 02:23:02;;;;;;;;;;;;;;;14.56;100.00;100998.03;5098264;28;19923;-54
2023/07/26 02:25:27;;;;;;;;;;;;;;;14.55;100.00;100995.59;5098398;28;19955;-48
2023/07/26 02:27:57;;;;;;;;;;;;;;;14.43;100.00;100990.88;5114621;28;19920;-52
2023/07/26 02:30:22;;;;;;;;;;;;;;;14.49;100.00;100990.00;5113573;28;19947;-52
2023/07/26 02:32:48;;;;;;;;;;;;;;;14.41;100.00;100992.13;5088896;28;19930;-51
2023/07/26 02:35:14;;;;;;;;;;;;;;;14.54;100.00;100986.66;5116139;28;19951;-51
2023/07/26 02:37:40;;;;;;;;;;;;;;;14.59;100.00;100984.13;5080902;28;19962;-52
2023/07/26 02:40:05;;;;;;;;;;;;;;;14.55;100.00;100987.50;5114137;28;19917;-54
2023/07/26 02:42:31;;;;;;;;;;;;;;;14.55;100.00;100984.81;5103033;28;19916;-52
2023/07/26 02:44:56;;;;;;;;;;;;;;;14.64;100.00;100986.19;5082807;28;19920;-49
2023/07/26 02:47:22;;;;;;;;;;;;;;;14.63;100.00;100985.34;5097951;28;19917;-50
2023/07/26 02:49:47;;;;;;;;;;;;;;;14.73;100.00;100984.88;5075780;28;19984;-49
2023/07/26 02:52:13;;;;;;;;;;;;;;;14.58;100.00;100977.09;5097851;28;19923;-50
2023/07/26 02:54:39;;;;;;;;;;;;;;;14.65;100.00;100987.00;5114178;28;19971;-51
2023/07/26 02:57:05;;;;;;;;;;;;;;;14.76;100.00;100992.56;5098012;28;19962;-52
2023/07/26 02:59:31;;;;;;;;;;;;;;;14.91;100.00;100986.84;5122556;28;19920;-51
2023/07/26 03:01:56;;;;;;;;;;;;;;;14.84;100.00;100988.72;5098054;28;19919;-50
2023/07/26 03:04:22;;;;;;;;;;;;;;;14.75;100.00;100982.81;5097963;28;19916;-51
2023/07/26 03:06:47;;;;;;;;;;;;;;;14.75;100.00;100988.19;5113947;28;19916;-51
2023/07/26 03:09:13;;;;;;;;;;;;;;;14.37;100.00;100986.38;5119114;28;19916;-51
2023/07/26 03:11:39;;;;;;;;;;;;;;;14.40;100.00;100985.09;5097854;28;19920;-53
2023/07/26 03:14:04;;;;;;;;;;;;;;;14.27;100.00;100991.41;5097433;28;19924;-53
2023/07/26 03:16:30;;;;;;;;;;;;;;;14.15;100.00;100984.03;5097774;28;19917;-52
2023/07/26 03:18:55;;;;;;;;;;;;;;;14.29;100.00;100989.31;5099193;28;19924;-49
2023/07/26 03:21:21;;;;;;;;;;;;;;;14.37;100.00;100991.75;5097434;28;19920;-51
2023/07/26 03:23:47;;;;;;;;;;;;;;;14.27;100.00;100991.41;5113434;28;19947;-49
2023/07/26 03:26:13;;;;;;;;;;;;;;;14.15;100.00;100989.41;5097334;28;19917;-52
2023/07/26 03:28:39;;;;;;;;;;;;;;;14.11;100.00;100993.56;5097426;28;19924;-49
2023/07/26 03:31:05;;;;;;;;;;;;;;;14.08;100.00;100996.69;5097315;28;19912;-50
2023/07/26 03:33:30;;;;;;;;;;;;;;;14.09;100.00;100998.34;5100216;28;19931;-48
2023/07/26 03:35:56;;;;;;;;;;;;;;;13.99;100.00;100998.81;5097294;28;19917;-53
2023/07/26 03:38:21;;;;;;;;;;;;;;;14.00;100.00;101007.69;5079435;28;19928;-50
2023/07/26 03:40:47;;;;;;;;;;;;;;;13.93;100.00;101002.31;5096988;28;19916;-49
2023/07/26 03:43:12;;;;;;;;;;;;;;;13.77;100.00;101003.63;5096687;28;19927;-48
2023/07/26 03:45:40;;;;;;;;;;;;;;;13.85;100.00;101010.66;5096386;28;20081;-53
2023/07/26 03:48:05;;;;;;;;;;;;;;;13.84;100.00;101009.00;5096597;28;19916;-50
2023/07/26 03:50:32;;;;;;;;;;;;;;;13.92;100.00;101006.06;5096953;28;19920;-50
2023/07/26 03:52:58;;;;;;;;;;;;;;;13.86;100.00;101007.75;5096608;28;19943;-51
2023/07/26 03:55:23;;;;;;;;;;;;;;;13.71;100.00;101010.69;5096724;28;19917;-49
2023/07/26 03:57:49;;;;;;;;;;;;;;;14.01;100.00;101004.78;5096567;28;19920;-49
2023/07/26 04:00:14;;;;;;;;;;;;;;;13.75;100.00;101005.72;5096634;28;19916;-50
2023/07/26 04:02:40;;;;;;;;;;;;;;;13.81;100.00;101010.22;5096573;28;19983;-52
2023/07/26 04:05:05;;;;;;;;;;;;;;;13.88;100.00;101005.69;5105461;28;19917;-52
2023/07/26 04:07:31;;;;;;;;;;;;;;;13.90;100.00;101008.97;5106512;28;19939;-50
2023/07/26 04:09:58;;;;;;;;;;;;;;;14.21;100.00;101009.25;5097217;28;19920;-48
2023/07/26 04:12:23;;;;;;;;;;;;;;;14.03;100.00;101008.09;5116194;28;19955;-47
2023/07/26 04:14:49;;;;;;;;;;;;;;;14.04;100.00;100990.91;5105331;28;19931;-47
2023/07/26 04:17:14;;;;;;;;;;;;;;;13.87;100.00;100993.28;5100619;28;19916;-47
2023/07/26 04:19:40;;;;;;;;;;;;;;;13.89;100.00;100998.41;5079040;28;19991;-52
2023/07/26 04:22:05;;;;;;;;;;;;;;;14.18;100.00;100994.34;5096164;28;19970;-51
2023/07/26 04:24:31;;;;;;;;;;;;;;;14.26;100.00;100995.13;5096175;28;19920;-47
2023/07/26 04:26:56;;;;;;;;;;;;;;;14.30;100.00;100990.97;5099951;28;19920;-46
2023/07/26 04:29:22;;;;;;;;;;;;;;;14.20;100.00;100999.53;5099916;28;19942;-48
2023/07/26 04:31:47;;;;;;;;;;;;;;;14.27;100.00;101002.16;5099428;28;19924;-49
2023/07/26 04:34:14;;;;;;;;;;;;;;;14.38;100.00;101001.47;5104964;28;19954;-53
2023/07/26 04:36:41;;;;;;;;;;;;;;;14.37;100.00;101001.69;5099637;28;19920;-50
2023/07/26 04:39:07;;;;;;;;;;;;;;;14.19;100.00;101001.38;5096734;28;19996;-51
2023/07/26 04:41:32;;;;;;;;;;;;;;;14.26;100.00;100998.66;5099339;28;19931;-51
2023/07/26 04:43:58;;;;;;;;;;;;;;;14.15;100.00;101002.84;5102043;28;19927;-49
2023/07/26 04:46:23;;;;;;;;;;;;;;;14.19;100.00;101005.94;5099749;28;19956;-50
2023/07/26 04:48:49;;;;;;;;;;;;;;;14.12;100.00;101005.13;5106358;28;19948;-48
2023/07/26 04:51:15;;;;;;;;;;;;;;;14.20;100.00;101005.72;5112517;28;19976;-52
2023/07/26 04:53:40;;;;;;;;;;;;;;;14.16;100.00;101003.66;5111577;28;20011;-50
2023/07/26 04:56:06;;;;;;;;;;;;;;;14.25;100.00;101002.38;5095294;28;19931;-50
2023/07/26 04:58:31;;;;;;;;;;;;;;;14.25;100.00;100999.69;5095484;28;19976;-50
2023/07/26 05:00:57;;;;;;;;;;;;;;;14.43;100.00;101001.66;5106974;28;19924;-48
2023/07/26 05:03:23;;;;;;;;;;;;;;;14.57;100.00;100996.19;5095319;28;20026;-49
2023/07/26 05:05:50;;;;;;;;;;;;;;;14.70;100.00;100993.38;5095353;28;19946;-48
2023/07/26 05:08:16;;;;;;;;;;;;;;;14.74;100.00;100994.63;5095060;28;19923;-52
2023/07/26 05:10:41;;;;;;;;;;;;;;;14.79;100.00;100998.53;5095295;28;19925;-51
2023/07/26 05:13:07;;;;;;;;;;;;;;;14.88;100.00;100991.81;5095114;28;19999;-51
2023/07/26 05:15:32;;;;;;;;;;;;;;;14.89;100.00;100999.69;5095231;28;19935;-52
2023/07/26 05:17:58;;;;;;;;;;;;;;;15.11;100.00;100995.75;5095287;28;19970;-51
2023/07/26 05:20:23;;;;;;;;;;;;;;;15.23;100.00;101001.25;5100134;28;19916;-53
2023/07/26 05:22:49;;;;;;;;;;;;;;;15.15;100.00;100991.56;5095132;28;19951;-52
2023/07/26 05:25:14;;;;;;;;;;;;;;;15.48;100.00;101007.41;5094872;28;19973;-49
2023/07/26 05:27:40;;;;;;;;;;;;;;;15.30;100.00;101002.00;5093535;28;19947;-49
2023/07/26 05:30:06;;;;;;;;;;;;;;;15.36;100.00;101001.13;5094893;28;19930;-52
2023/07/26 05:32:31;;;;;;;;;;;;;;;15.59;100.00;101003.13;5095083;28;19927;-51
2023/07/26 05:34:57;;;;;;;;;;;;;;;15.54;100.00;101003.00;5100957;28;19921;-51
2023/07/26 05:37:23;;;;;;;;;;;;;;;15.70;100.00;100998.06;5094803;28;19916;-51
2023/07/26 05:39:49;;;;;;;;;;;;;;;15.78;100.00;101003.13;5094663;28;19955;-48
2023/07/26 05:42:15;;;;;;;;;;;;;;;15.77;100.00;101006.88;5094136;28;19917;-51
2023/07/26 05:44:41;;;;;;;;;;;;;;;16.10;100.00;101002.94;5098840;28;19988;-52
2023/07/26 05:47:09;;;;;;;;;;;;;;;16.11;100.00;101012.69;5097268;28;19916;-51
2023/07/26 05:49:34;;;;;;;;;;;;;;;16.12;100.00;101017.03;5094903;28;19916;-51
2023/07/26 05:52:00;;;;;;;;;;;;;;;16.33;100.00;101012.19;5095703;28;19917;-51
2023/07/26 05:54:25;;;;;;;;;;;;;;;16.44;100.00;101016.81;5096541;28;19928;-54
2023/07/26 05:56:51;;;;;;;;;;;;;;;16.48;100.00;101020.69;5094235;28;19927;-49
2023/07/26 05:59:16;;;;;;;;;;;;;;;16.24;100.00;101022.47;5080720;28;19956;-51
2023/07/26 06:01:42;;;;;;;;;;;;;;;16.20;100.00;101029.38;5089837;28;19916;-53
2023/07/26 06:04:08;;;;;;;;;;;;;;;16.48;100.00;101036.03;5094770;28;19963;-53
2023/07/26 06:06:33;;;;;;;;;;;;;;;16.39;100.00;101035.56;5102054;28;19923;-48
2023/07/26 06:08:59;;;;;;;;;;;;;;;16.10;100.00;101040.72;5094445;28;20645;-49
2023/07/26 06:11:24;;;;;;;;;;;;;;;16.92;100.00;101046.59;5094305;28;19980;-46
2023/07/26 06:13:50;;;;;;;;;;;;;;;15.99;100.00;101039.59;5093008;28;19924;-50
2023/07/26 06:16:15;;;;;;;;;;;;;;;16.36;100.00;101046.78;5093661;28;19931;-51
2023/07/26 06:18:41;;;;;;;;;;;;;;;16.70;100.00;101049.00;5094426;28;19924;-51
2023/07/26 06:21:06;;;;;;;;;;;;;;;16.52;100.00;101058.00;5093796;28;19916;-52
2023/07/26 06:23:32;;;;;;;;;;;;;;;16.28;100.00;101057.91;5094332;28;19979;-53
2023/07/26 06:25:57;;;;;;;;;;;;;;;17.73;100.00;101067.66;5086557;28;19921;-54
2023/07/26 06:28:23;;;;;;;;;;;;;;;16.93;100.00;101059.06;5095983;28;19955;-54
2023/07/26 06:30:49;;;;;;;;;;;;;;;16.07;100.00;101061.94;5099355;28;19927;-51
2023/07/26 06:33:14;;;;;;;;;;;;;;;16.56;100.00;101067.28;5099342;28;19921;-51
2023/07/26 06:35:40;;;;;;;;;;;;;;;16.43;100.00;101066.44;5073107;28;19948;-49
2023/07/26 06:38:05;;;;;;;;;;;;;;;16.57;100.00;101074.34;5088895;28;19916;-52
2023/07/26 06:40:31;;;;;;;;;;;;;;;16.53;100.00;101075.84;5091786;28;19946;-47
2023/07/26 06:42:57;;;;;;;;;;;;;;;16.55;100.00;101084.53;5094149;28;19923;-52
2023/07/26 06:45:23;;;;;;;;;;;;;;;16.48;100.00;101090.88;5097015;28;19925;-54
2023/07/26 06:47:49;;;;;;;;;;;;;;;16.21;100.00;101106.56;5094134;28;19924;-52
2023/07/26 06:50:15;;;;;;;;;;;;;;;18.53;100.00;101131.25;5093752;28;19916;-48
2023/07/26 06:52:40;;;;;;;;;;;;;;;15.51;100.00;101148.16;5087148;28;19920;-53
2023/07/26 06:55:05;;;;;;;;;;;;;;;14.87;100.00;101127.50;5091777;28;19916;-48
2023/07/26 06:57:31;;;;;;;;;;;;;;;15.26;100.00;101136.34;5097371;28;19939;-48
2023/07/26 06:59:56;;;;;;;;;;;;;;;15.48;100.00;101134.06;5097280;28;19916;-51
2023/07/26 07:02:22;;;;;;;;;;;;;;;15.15;100.00;101126.25;5106826;28;19980;-51
2023/07/26 07:04:47;;;;;;;;;;;;;;;15.22;100.00;101135.09;5091071;28;19924;-52
2023/07/26 07:07:13;;;;;;;;;;;;;;;15.94;100.00;101143.84;5098785;28;19917;-51
2023/07/26 07:09:39;;;;;;;;;;;;;;;15.60;100.00;101141.44;5097401;28;19916;-54
2023/07/26 07:12:06;;;;;;;;;;;;;;;15.59;100.00;101137.91;5095077;28;19927;-56
2023/07/26 07:14:32;;;;;;;;;;;;;;;15.65;100.00;101141.59;5096834;28;19984;-52
2023/07/26 07:16:58;;;;;;;;;;;;;;;17.06;100.00;101150.72;5099905;28;19920;-52
2023/07/26 07:19:23;;;;;;;;;;;;;;;17.85;100.00;101156.91;5096926;28;20031;-51
2023/07/26 07:21:49;;;;;;;;;;;;;;;16.30;100.00;101147.56;5096828;28;19924;-51
2023/07/26 07:24:14;;;;;;;;;;;;;;;16.45;100.00;101139.91;5089410;28;19920;-50
2023/07/26 07:26:40;;;;;;;;;;;;;;;16.35;100.00;101139.63;5091136;28;19916;-55
2023/07/26 07:29:05;;;;;;;;;;;;;;;16.39;100.00;101132.72;5096875;28;19948;-50
2023/07/26 07:31:31;;;;;;;;;;;;;;;16.41;100.00;101125.22;5094824;28;19927;-52
2023/07/26 07:33:56;;;;;;;;;;;;;;;16.33;100.00;101123.66;5096792;28;20299;-55
2023/07/26 07:36:22;;;;;;;;;;;;;;;16.20;100.00;101130.06;5088166;28;19925;-53
2023/07/26 07:38:47;;;;;;;;;;;;;;;16.33;100.00;101125.53;5093864;28;19923;-54
2023/07/26 07:41:13;;;;;;;;;;;;;;;16.00;100.00;101126.75;5089330;28;19980;-50
2023/07/26 07:43:39;;;;;;;;;;;;;;;16.41;100.00;101119.00;5096905;28;19916;-54
2023/07/26 07:46:05;;;;;;;;;;;;;;;16.45;100.00;101125.56;5102272;28;19966;-54
2023/07/26 07:48:33;;;;;;;;;;;;;;;15.81;100.00;101128.59;5088572;28;19923;-54
2023/07/26 07:50:58;;;;;;;;;;;;;;;15.75;100.00;101125.72;5089180;28;19970;-53
2023/07/26 07:53:23;;;;;;;;;;;;;;;15.90;100.00;101132.66;5094648;28;19921;-53
2023/07/26 07:55:49;;;;;;;;;;;;;;;15.85;100.00;101129.78;5097386;28;19973;-53
2023/07/26 07:58:15;;;;;;;;;;;;;;;15.87;100.00;101128.50;5090733;28;19916;-54
2023/07/26 08:00:40;;;;;;;;;;;;;;;17.22;100.00;101126.78;5074666;28;19917;-55
2023/07/26 08:03:06;;;;;;;;;;;;;;;16.50;100.00;101125.75;5100484;28;19917;-51
2023/07/26 08:05:34;;;;;;;;;;;;;;;16.17;100.00;101121.56;5092839;28;19928;-54
2023/07/26 08:08:00;;;;;;;;;;;;;;;16.04;100.00;101126.09;5088408;28;19931;-55
2023/07/26 08:10:26;;;;;;;;;;;;;;;16.06;100.00;101125.84;5093945;28;19917;-54
2023/07/26 08:12:51;;;;;;;;;;;;;;;16.11;100.00;101120.59;5093783;28;19927;-51
2023/07/26 08:15:17;;;;;;;;;;;;;;;16.30;100.00;101123.28;5094991;28;19923;-54
2023/07/26 08:17:42;;;;;;;;;;;;;;;18.90;100.00;101119.97;5100280;28;19924;-52
2023/07/26 08:20:08;;;;;;;;;;;;;;;16.28;100.00;101120.00;5089355;28;19976;-51
2023/07/26 08:22:34;;;;;;;;;;;;;;;16.32;100.00;101124.72;5098579;28;19920;-51
2023/07/26 08:24:59;;;;;;;;;;;;;;;16.37;100.00;101118.63;5095645;28;19916;-54
2023/07/26 08:27:25;;;;;;;;;;;;;;;16.48;100.00;101115.16;5095178;28;19917;-51
2023/07/26 08:29:50;;;;;;;;;;;;;;;16.41;100.00;101119.84;5104432;28;19916;-55
2023/07/26 08:32:17;;;;;;;;;;;;;;;16.56;100.00;101121.28;5100828;28;19943;-53
2023/07/26 08:34:43;;;;;;;;;;;;;;;16.80;100.00;101129.47;5108261;28;19975;-54
2023/07/26 08:37:09;;;;;;;;;;;;;;;16.96;100.00;101128.00;5110797;28;19927;-53
2023/07/26 08:39:34;;;;;;;;;;;;;;;17.08;100.00;101122.66;5100750;28;19927;-50
2023/07/26 08:42:00;;;;;;;;;;;;;;;17.18;100.00;101122.91;5098565;28;19991;-47
2023/07/26 08:44:25;;;;;;;;;;;;;;;17.27;100.00;101126.91;5101054;28;19916;-51
2023/07/26 08:46:52;;;;;;;;;;;;;;;17.53;100.00;101121.28;5076967;28;19916;-54
2023/07/26 08:49:18;;;;;;;;;;;;;;;17.54;100.00;101128.34;5094450;28;19939;-52
2023/07/26 08:51:44;;;;;;;;;;;;;;;17.59;100.00;101115.75;5097440;28;19920;-52
2023/07/26 08:54:10;;;;;;;;;;;;;;;17.62;100.00;101109.88;5104401;28;19931;-51
2023/07/26 08:56:35;;;;;;;;;;;;;;;17.80;100.00;101110.81;5099945;28;19922;-52
2023/07/26 08:59:02;;;;;;;;;;;;;;;17.98;100.00;101109.00;5100329;28;19939;-53
2023/07/26 09:01:28;;;;;;;;;;;;;;;18.19;100.00;101113.78;5094754;28;19955;-55
2023/07/26 09:03:53;;;;;;;;;;;;;;;18.61;100.00;101103.75;5094884;28;19923;-51
2023/07/26 09:06:19;;;;;;;;;;;;;;;18.60;100.00;101110.25;5097428;28;19916;-53
2023/07/26 09:08:46;;;;;;;;;;;;;;;18.90;100.00;101095.59;5100271;28;19920;-51
2023/07/26 09:11:23;;;;;;;;;;;;;;;19.26;100.00;101107.03;5094740;28;19913;-51
2023/07/26 09:13:55;;;;;;;;;;;;;;;19.24;100.00;101103.75;5107980;28;19951;-53
2023/07/26 09:16:21;;;;;;;;;;;;;;;19.54;100.00;101099.06;5094090;28;20056;-54
2023/07/26 09:19:00;;;;;;;;;;;;;;;20.04;100.00;101089.97;5094534;28;19924;-54
2023/07/26 09:21:27;;;;;;;;;;;;;;;20.20;100.00;101095.59;5094727;28;19927;-54
2023/07/26 09:23:52;;;;;;;;;;;;;;;20.21;100.00;101086.38;5101472;28;19916;-49
2023/07/26 09:26:29;;;;;;;;;;;;;;;20.44;100.00;101079.81;5094946;28;19944;-50
2023/07/26 09:28:55;;;;;;;;;;;;;;;20.73;100.00;101071.38;5100393;28;19916;-53
2023/07/26 09:31:28;;;;;;;;;;;;;;;20.91;100.00;101077.53;5095112;28;19934;-49
2023/07/26 09:33:54;;;;;;;;;;;;;;;20.47;100.00;101073.84;5096342;28;19976;-52
2023/07/26 09:36:19;;;;;;;;;;;;;;;20.34;100.00;101082.44;5097685;28;19927;-53
2023/07/26 09:38:46;;;;;;;;;;;;;;;20.19;100.00;101083.88;5094500;28;19931;-50
2023/07/26 09:41:23;;;;;;;;;;;;;;;19.89;100.00;101087.03;5090792;28;19917;-51
2023/07/26 09:43:49;;;;;;;;;;;;;;;19.62;100.00;101085.88;5089217;28;19921;-52
2023/07/26 09:46:15;;;;;;;;;;;;;;;19.46;100.00;101089.44;5093711;28;19912;-50
2023/07/26 09:48:56;;;;;;;;;;;;;;;19.34;100.00;101086.84;5101530;28;19927;-50
2023/07/26 09:51:24;;;;;;;;;;;;;;;19.69;100.00;101084.88;5092906;28;19923;-53
2023/07/26 09:53:50;;;;;;;;;;;;;;;20.14;100.00;101081.13;5084767;28;19921;-54
2023/07/26 09:56:15;;;;;;;;;;;;;;;20.33;100.00;101076.16;5094440;28;19922;-53
2023/07/26 09:58:42;;;;;;;;;;;;;;;20.06;100.00;101084.25;5094653;28;19969;-54
2023/07/26 10:01:12;;;;;;;;;;;;;;;19.89;100.00;101079.72;5094541;28;19900;-49
2023/07/26 10:03:39;;;;;;;;;;;;;;;19.92;100.00;101078.41;5100082;28;19916;-52
2023/07/26 10:06:05;;;;;;;;;;;;;;;19.94;100.00;101078.97;5112492;28;19921;-53
2023/07/26 10:08:31;;;;;;;;;;;;;;;20.31;100.00;101080.22;5094349;28;19923;-53
2023/07/26 10:10:58;;;;;;;;;;;;;;;20.74;100.00;101083.06;5094138;28;20006;-52
2023/07/26 10:13:24;;;;;;;;;;;;;;;20.32;100.00;101082.66;5097025;28;20037;-48
2023/07/26 10:15:51;;;;;;;;;;;;;;;20.67;100.00;101080.56;5088267;28;19920;-49
2023/07/26 10:18:21;;;;;;;;;;;;;;;20.69;100.00;101086.56;5093965;28;20007;-50
2023/07/26 10:20:48;;;;;;;;;;;;;;;20.94;100.00;101087.88;5095637;28;19916;-50
2023/07/26 10:23:14;;;;;;;;;;;;;;;22.25;100.00;101093.00;5094176;28;19923;-52
2023/07/26 10:25:40;;;;;;;;;;;;;;;23.60;100.00;101088.38;5094680;28;19916;-54
2023/07/26 10:28:06;;;;;;;;;;;;;;;24.60;100.00;101093.13;5095325;28;19916;-52
2023/07/26 10:30:32;;;;;;;;;;;;;;;25.26;100.00;101090.94;5097612;28;19912;-50
2023/07/26 10:33:00;;;;;;;;;;;;;;;25.45;100.00;101101.97;5099508;28;19944;-51
2023/07/26 10:35:28;;;;;;;;;;;;;;;25.52;92.03;101096.19;5097763;28;19942;-52
2023/07/26 10:37:55;;;;;;;;;;;;;;;25.68;87.64;101087.78;5103186;28;19912;-49
2023/07/26 10:40:33;;;;;;;;;;;;;;;25.44;77.67;101083.09;5084728;28;19916;-53
2023/07/26 10:42:59;;;;;;;;;;;;;;;25.18;79.71;101099.78;5087106;28;20047;-54
2023/07/26 10:45:42;;;;;;;;;;;;;;;26.15;76.37;101105.28;5092633;28;19923;-50
2023/07/26 10:48:12;;;;;;;;;;;;;;;25.83;77.28;101090.31;5096986;28;19916;-54
2023/07/26 10:50:37;;;;;;;;;;;;;;;26.30;77.34;101084.28;5090915;28;19927;-50
2023/07/26 10:53:42;;;;;;;;;;;;;;;26.28;73.27;101100.19;5086250;28;19920;-54
2023/07/26 10:56:11;;;;;;;;;;;;;;;25.68;69.82;101096.00;5066148;28;20011;-53
2023/07/26 10:58:36;;;;;;;;;;;;;;;25.35;67.79;101091.94;5044876;28;19917;-51
2023/07/26 11:01:03;;;;;;;;;;;;;;;25.17;67.98;101096.22;5070784;28;19964;-55
2023/07/26 11:03:28;;;;;;;;;;;;;;;23.80;72.80;101097.63;5097122;28;19927;-53
2023/07/26 11:05:57;;;;;;;;;;;;;;;25.11;66.79;101091.09;5108608;28;19956;-51
2023/07/26 11:08:47;;;;;;;;;;;;;;;26.74;61.76;101107.72;5094715;28;19923;-49
2023/07/26 11:11:16;;;;;;;;;;;;;;;27.95;60.34;101101.75;5096332;28;19924;-53
2023/07/26 11:13:42;;;;;;;;;;;;;;;26.32;58.71;101104.78;5096825;28;19943;-54
2023/07/26 11:16:08;;;;;;;;;;;;;;;26.74;59.47;101104.97;5088918;28;19917;-49
2023/07/26 11:18:40;;;;;;;;;;;;;;;25.48;64.02;101106.09;5099985;28;19916;-53
2023/07/26 11:21:05;;;;;;;;;;;;;;;26.19;58.23;101103.59;5097071;28;19916;-54
2023/07/26 11:23:30;;;;;;;;;;;;;;;27.66;52.63;101097.38;5100604;28;19916;-50
2023/07/26 11:25:57;;;;;;;;;;;;;;;28.48;49.26;101103.03;5076949;28;19954;-51
2023/07/26 11:28:24;;;;;;;;;;;;;;;28.06;46.93;101105.88;5086635;28;19920;-52
2023/07/26 11:30:51;;;;;;;;;;;;;;;28.72;48.67;101110.19;5078008;28;19927;-52
2023/07/26 11:33:27;;;;;;;;;;;;;;;28.55;48.69;101114.44;5085028;28;19920;-54
2023/07/26 11:35:53;;;;;;;;;;;;;;;29.90;43.67;101119.22;5096633;28;19948;-51
2023/07/26 11:38:19;;;;;;;;;;;;;;;30.21;41.36;101123.84;5096231;28;19917;-52
2023/07/26 11:40:44;;;;;;;;;;;;;;;30.29;41.11;101116.72;5095772;28;19979;-51
2023/07/26 11:43:10;;;;;;;;;;;;;;;30.30;41.97;101110.06;5098328;28;19920;-52
2023/07/26 11:45:39;;;;;;;;;;;;;;;27.30;45.39;101113.41;5106203;28;19924;-51
2023/07/26 11:48:08;;;;;;;;;;;;;;;25.89;50.57;101121.22;5096341;28;19916;-49
2023/07/26 11:50:34;;;;;;;;;;;;;;;26.96;50.67;101120.00;5096334;28;19917;-51
2023/07/26 11:53:03;;;;;;;;;;;;;;;27.01;47.67;101122.69;5096156;28;19931;-49
2023/07/26 11:55:29;;;;;;;;;;;;;;;25.88;51.41;101120.41;5103641;28;20011;-53
2023/07/26 11:57:54;;;;;;;;;;;;;;;25.89;55.00;101122.06;5092926;28;19923;-49
2023/07/26 12:00:20;;;;;;;;;;;;;;;27.26;52.18;101131.59;5093030;28;19920;-51
2023/07/26 12:02:46;;;;;;;;;;;;;;;28.48;45.85;101131.38;5093027;28;19916;-51
2023/07/26 12:05:18;;;;;;;;;;;;;;;27.89;47.99;101121.06;5091769;28;19916;-55
2023/07/26 12:07:45;;;;;;;;;;;;;;;26.93;51.82;101131.59;5091204;28;19989;-53
2023/07/26 12:10:11;;;;;;;;;;;;;;;27.37;47.36;101145.97;5093358;28;19920;-53
2023/07/26 12:12:40;;;;;;;;;;;;;;;28.29;43.89;101136.19;5094460;28;19943;-50
2023/07/26 12:15:07;;;;;;;;;;;;;;;28.19;44.80;101121.56;5095742;28;19952;-52
2023/07/26 12:17:32;;;;;;;;;;;;;;;29.24;41.63;101137.25;5095797;28;19947;-52
2023/07/26 12:20:02;;;;;;;;;;;;;;;29.62;40.21;101130.47;5098058;28;19927;-49
2023/07/26 12:22:28;;;;;;;;;;;;;;;30.20;40.04;101136.00;5086340;28;20323;-52
2023/07/26 12:24:53;;;;;;;;;;;;;;;28.12;40.87;101131.31;5078136;28;19939;-52